createdAt,value
2019-04-11T00:02:09.891Z,49.20
2019-04-11T00:04:37.981Z,48.80
2019-04-11T00:07:06.145Z,50.50
2019-04-11T00:09:34.508Z,50.20
2019-04-11T00:12:02.772Z,50.70
2019-04-11T00:14:31.655Z,50.50
2019-04-11T00:16:59.536Z,51.10
2019-04-11T00:19:27.446Z,52.10
2019-04-11T00:21:55.316Z,52.50
2019-04-11T00:24:23.020Z,52.40
2019-04-11T00:26:50.797Z,53.20
2019-04-11T00:29:18.515Z,51.90
2019-04-11T00:31:52.751Z,52.30
2019-04-11T00:34:20.693Z,52.00
2019-04-11T00:36:48.551Z,52.40
2019-04-11T00:39:16.279Z,53.70
2019-04-11T00:41:50.279Z,54.30
2019-04-11T00:44:18.847Z,53.40
2019-04-11T00:46:46.762Z,53.50
2019-04-11T00:49:14.548Z,53.70
2019-04-11T00:51:42.436Z,55.20
2019-04-11T00:54:10.856Z,55.20
2019-04-11T00:56:38.655Z,55.10
2019-04-11T00:59:06.402Z,55.10
2019-04-11T01:01:39.369Z,55.10
2019-04-11T01:04:07.607Z,55.10
2019-04-11T01:06:36.526Z,55.30
2019-04-11T01:09:06.337Z,55.00
2019-04-11T01:11:34.410Z,54.90
2019-04-11T01:14:02.167Z,54.90
2019-04-11T01:16:46.681Z,54.90
2019-04-11T01:19:14.532Z,54.90
2019-04-11T01:21:42.415Z,55.20
2019-04-11T01:24:11.292Z,54.90
2019-04-11T01:26:39.175Z,55.20
2019-04-11T01:29:07.206Z,55.30
2019-04-11T01:31:36.082Z,55.20
2019-04-11T01:34:04.419Z,54.30
2019-04-11T01:36:33.239Z,55.00
2019-04-11T01:39:05.201Z,55.00
2019-04-11T01:41:32.921Z,54.90
2019-04-11T01:44:05.513Z,54.80
2019-04-11T01:46:51.338Z,54.80
2019-04-11T01:49:21.857Z,55.90
2019-04-11T01:51:49.811Z,56.40
2019-04-11T01:54:17.555Z,56.60
2019-04-11T01:56:45.424Z,56.90
2019-04-11T01:59:13.257Z,58.00
2019-04-11T02:02:31.166Z,58.20
2019-04-11T02:05:12.462Z,58.50
2019-04-11T02:07:40.627Z,58.80
2019-04-11T02:10:39.312Z,58.30
2019-04-11T02:13:07.872Z,58.50
2019-04-11T02:15:36.680Z,58.10
2019-04-11T02:18:05.417Z,58.00
2019-04-11T02:20:33.452Z,57.70
2019-04-11T02:23:21.542Z,58.20
2019-04-11T02:26:00.851Z,58.80
2019-04-11T02:28:28.834Z,58.10
2019-04-11T02:30:57.466Z,58.60
2019-04-11T02:33:26.800Z,58.90
2019-04-11T02:35:56.440Z,59.00
2019-04-11T02:38:25.819Z,59.30
2019-04-11T02:41:05.913Z,59.20
2019-04-11T02:43:34.220Z,59.30
2019-04-11T02:46:11.950Z,59.10
2019-04-11T02:48:35.325Z,58.70
2019-04-11T02:51:07.483Z,58.80
2019-04-11T02:53:36.755Z,58.20
2019-04-11T02:56:06.238Z,57.30
2019-04-11T02:58:54.633Z,57.80
2019-04-11T03:01:24.182Z,57.90
2019-04-11T03:03:53.933Z,57.50
2019-04-11T03:06:23.437Z,57.70
2019-04-11T03:08:53.039Z,58.50
2019-04-11T03:11:21.869Z,58.80
2019-04-11T03:13:54.851Z,59.00
2019-04-11T03:16:35.344Z,59.80
2019-04-11T03:19:10.506Z,59.80
2019-04-11T03:21:45.545Z,60.00
2019-04-11T03:24:13.032Z,60.10
2019-04-11T03:26:43.372Z,60.50
2019-04-11T03:29:12.860Z,60.70
2019-04-11T03:32:24.762Z,60.60
2019-04-11T03:34:59.431Z,61.00
2019-04-11T03:39:35.966Z,60.90
2019-04-11T03:42:01.421Z,61.00
2019-04-11T03:44:19.124Z,61.40
2019-04-11T03:46:52.729Z,60.90
2019-04-11T03:49:24.014Z,61.20
2019-04-11T03:51:43.033Z,61.70
2019-04-11T03:54:11.556Z,61.50
2019-04-11T03:56:41.243Z,60.80
2019-04-11T03:59:12.441Z,60.40
2019-04-11T04:01:39.912Z,60.40
2019-04-11T04:04:09.116Z,60.40
2019-04-11T04:06:39.318Z,60.80
2019-04-11T04:09:08.916Z,61.60
2019-04-11T04:11:38.430Z,62.90
2019-04-11T04:14:37.214Z,63.80
2019-04-11T04:17:14.732Z,63.70
2019-04-11T04:19:54.282Z,63.70
2019-04-11T04:22:31.722Z,63.70
2019-04-11T04:25:01.100Z,63.60
2019-04-11T04:27:30.533Z,64.20
2019-04-11T04:30:01.582Z,63.70
2019-04-11T04:32:30.440Z,64.00
2019-04-11T04:35:00.541Z,64.50
2019-04-11T04:37:29.609Z,63.70
2019-04-11T04:40:21.013Z,63.60
2019-04-11T04:42:33.292Z,63.60
2019-04-11T04:44:58.271Z,63.60
2019-04-11T04:47:36.453Z,63.70
2019-04-11T04:49:57.131Z,64.00
2019-04-11T04:52:25.887Z,63.90
2019-04-11T04:54:56.865Z,64.40
2019-04-11T04:57:25.108Z,63.60
2019-04-11T04:59:55.510Z,62.40
2019-04-11T05:02:24.067Z,62.10
2019-04-11T05:04:54.158Z,61.80
2019-04-11T05:07:23.442Z,62.00
2019-04-11T05:09:51.396Z,61.60
2019-04-11T05:12:20.571Z,62.40
2019-04-11T05:14:49.820Z,61.60
2019-04-11T05:17:19.132Z,61.30
2019-04-11T05:19:47.063Z,58.50
2019-04-11T05:22:14.910Z,53.80
2019-04-11T05:24:43.373Z,48.90
2019-04-11T05:27:11.194Z,47.60
2019-04-11T05:29:39.817Z,43.50
2019-04-11T05:32:07.690Z,41.00
2019-04-11T05:34:35.462Z,38.40
2019-04-11T05:37:03.952Z,38.50
2019-04-11T05:39:32.028Z,36.90
2019-04-11T05:41:59.852Z,36.20
2019-04-11T05:44:28.491Z,34.00
2019-04-11T05:47:00.660Z,33.00
2019-04-11T05:49:58.892Z,30.60
2019-04-11T05:52:30.643Z,30.20
2019-04-11T05:55:00.688Z,29.40
2019-04-11T05:57:35.241Z,29.30
2019-04-11T05:59:59.230Z,28.50
2019-04-11T06:02:37.427Z,28.00
2019-04-11T06:05:39.060Z,27.80
2019-04-11T06:08:09.857Z,26.70
2019-04-11T06:10:57.458Z,25.70
2019-04-11T06:13:43.364Z,25.20
2019-04-11T06:16:11.196Z,23.80
2019-04-11T06:19:18.622Z,23.20
2019-04-11T06:21:52.816Z,23.20
2019-04-11T06:24:36.412Z,21.90
2019-04-11T06:27:30.485Z,19.80
2019-04-11T06:30:24.779Z,18.90
2019-04-11T06:33:10.595Z,18.80
2019-04-11T06:35:48.325Z,18.40
2019-04-11T06:38:43.096Z,17.50
2019-04-11T06:41:24.437Z,16.40
2019-04-11T06:44:12.281Z,16.30
2019-04-11T06:47:00.688Z,16.70
2019-04-11T06:49:53.656Z,15.40
2019-04-11T06:52:21.897Z,14.80
2019-04-11T06:55:06.603Z,15.30
2019-04-11T06:57:34.561Z,14.20
2019-04-11T07:00:03.137Z,14.70
2019-04-11T07:02:32.063Z,15.10
2019-04-11T07:05:03.007Z,14.00
2019-04-11T07:07:32.757Z,13.40
2019-04-11T07:10:04.039Z,12.60
2019-04-11T07:12:45.314Z,13.10
2019-04-11T07:15:16.675Z,13.20
2019-04-11T07:18:04.818Z,12.90
2019-04-11T07:20:49.932Z,12.90
2019-04-11T07:23:36.479Z,12.60
2019-04-11T07:26:16.952Z,12.10
2019-04-11T07:29:04.588Z,11.60
2019-04-11T07:31:52.931Z,11.90
2019-04-11T07:34:40.069Z,11.40
2019-04-11T07:37:26.203Z,10.70
2019-04-11T07:40:26.812Z,11.70
2019-04-11T07:43:19.044Z,10.40
2019-04-11T07:46:16.817Z,11.10
2019-04-11T07:48:44.855Z,10.30
2019-04-11T07:51:36.437Z,10.50
2019-04-11T07:54:10.035Z,9.50
2019-04-11T07:56:58.454Z,9.20
2019-04-11T08:00:01.568Z,9.30
2019-04-11T08:03:04.287Z,9.60
2019-04-11T08:05:54.489Z,9.60
2019-04-11T08:08:47.725Z,9.30
2019-04-11T08:11:19.928Z,9.10
2019-04-11T08:14:06.651Z,8.80
2019-04-11T08:16:53.287Z,9.60
2019-04-11T08:19:40.654Z,9.40
2019-04-11T08:22:16.979Z,9.00
2019-04-11T08:25:04.936Z,8.70
2019-04-11T08:27:48.482Z,9.50
2019-04-11T08:30:08.640Z,8.90
2019-04-11T08:33:09.092Z,8.60
2019-04-11T08:35:56.762Z,8.40
2019-04-11T08:38:32.647Z,9.00
2019-04-11T08:41:19.753Z,9.80
2019-04-11T08:43:47.769Z,8.00
2019-04-11T08:46:20.552Z,9.70
2019-04-11T08:48:51.218Z,8.70
2019-04-11T08:51:19.449Z,9.80
2019-04-11T08:54:06.951Z,7.80
2019-04-11T08:56:39.171Z,8.60
2019-04-11T08:59:35.940Z,7.80
2019-04-11T09:02:04.732Z,8.70
2019-04-11T09:05:02.695Z,8.70
2019-04-11T09:07:23.767Z,9.10
2019-04-11T09:10:09.634Z,9.90
2019-04-11T09:12:40.174Z,9.10
2019-04-11T09:15:26.906Z,9.00
2019-04-11T09:18:04.195Z,9.30
2019-04-11T09:20:47.637Z,9.90
2019-04-11T09:23:19.754Z,9.10
2019-04-11T09:26:06.154Z,8.40
2019-04-11T09:28:44.470Z,7.60
2019-04-11T09:31:39.930Z,7.90
2019-04-11T09:34:44.047Z,8.40
2019-04-11T09:37:29.601Z,9.90
2019-04-11T09:40:23.963Z,9.20
2019-04-11T09:43:12.395Z,9.80
2019-04-11T09:45:59.925Z,9.90
2019-04-11T09:49:02.630Z,9.60
2019-04-11T09:52:08.808Z,8.30
2019-04-11T09:54:56.800Z,8.30
2019-04-11T09:57:29.140Z,8.00
2019-04-11T10:00:26.661Z,7.90
2019-04-11T10:03:15.303Z,8.40
2019-04-11T10:05:51.756Z,9.40
2019-04-11T10:08:51.270Z,9.70
2019-04-11T10:11:52.815Z,10.30
2019-04-11T10:14:21.702Z,10.00
2019-04-11T10:17:08.721Z,9.90
2019-04-11T10:19:42.321Z,9.50
2019-04-11T10:22:48.278Z,8.50
2019-04-11T10:25:32.163Z,9.30
2019-04-11T10:28:29.532Z,8.30
2019-04-11T10:31:10.760Z,8.60
2019-04-11T10:34:02.808Z,6.80
2019-04-11T10:36:34.824Z,9.80
2019-04-11T10:39:15.201Z,8.20
2019-04-11T10:41:51.435Z,8.60
2019-04-11T10:44:25.619Z,8.10
2019-04-11T10:47:14.408Z,8.50
2019-04-11T10:50:03.053Z,8.40
2019-04-11T10:52:38.404Z,8.40
2019-04-11T10:55:10.008Z,8.30
2019-04-11T10:57:49.752Z,7.90
2019-04-11T11:00:45.341Z,8.10
2019-04-11T11:03:36.090Z,8.50
2019-04-11T11:06:05.423Z,8.50
2019-04-11T11:08:50.027Z,8.10
2019-04-11T11:11:25.100Z,8.60
2019-04-11T11:14:12.288Z,8.70
2019-04-11T11:16:47.013Z,8.70
2019-04-11T11:19:46.638Z,8.20
2019-04-11T11:22:39.111Z,7.70
2019-04-11T11:25:33.022Z,8.60
2019-04-11T11:28:03.181Z,7.90
2019-04-11T11:30:50.384Z,7.90
2019-04-11T11:33:20.432Z,7.80
2019-04-11T11:36:11.157Z,9.10
2019-04-11T11:38:39.881Z,8.60
2019-04-11T11:41:25.882Z,8.50
2019-04-11T11:43:53.719Z,8.00
2019-04-11T11:46:34.623Z,8.40
2019-04-11T11:49:06.282Z,8.60
2019-04-11T11:52:08.954Z,8.40
2019-04-11T11:54:41.586Z,7.80
2019-04-11T11:57:14.964Z,7.90
2019-04-11T11:59:48.333Z,8.30
2019-04-11T12:02:38.999Z,7.50
2019-04-11T12:05:18.467Z,8.40
2019-04-11T12:08:15.067Z,9.30
2019-04-11T12:10:49.214Z,7.90
2019-04-11T12:13:40.717Z,7.20
2019-04-11T12:16:32.076Z,6.60
2019-04-11T12:19:22.208Z,7.10
2019-04-11T12:21:51.989Z,7.30
2019-04-11T12:24:34.591Z,8.00
2019-04-11T12:27:20.715Z,8.30
2019-04-11T12:30:14.010Z,8.80
2019-04-11T12:32:46.972Z,8.60
2019-04-11T12:35:52.770Z,8.30
2019-04-11T12:38:40.514Z,7.90
2019-04-11T12:41:20.080Z,8.70
2019-04-11T12:44:03.634Z,8.80
2019-04-11T12:46:49.687Z,8.70
2019-04-11T12:49:25.617Z,9.00
2019-04-11T12:52:11.935Z,7.50
2019-04-11T12:54:40.906Z,7.10
2019-04-11T12:57:26.881Z,7.30
2019-04-11T13:00:02.540Z,8.10
2019-04-11T13:02:48.777Z,7.70
2019-04-11T13:05:16.943Z,8.10
2019-04-11T13:08:03.844Z,8.60
2019-04-11T13:10:35.035Z,8.40
2019-04-11T13:13:22.412Z,7.90
2019-04-11T13:15:55.800Z,8.20
2019-04-11T13:18:42.086Z,8.40
2019-04-11T13:21:23.304Z,8.10
2019-04-11T13:24:11.200Z,9.00
2019-04-11T13:27:14.162Z,8.80
2019-04-11T13:30:05.125Z,8.30
2019-04-11T13:33:09.297Z,7.90
2019-04-11T13:36:05.946Z,8.10
2019-04-11T13:38:41.931Z,8.60
2019-04-11T13:41:28.493Z,8.70
2019-04-11T13:44:16.200Z,6.90
2019-04-11T13:47:12.962Z,9.60
2019-04-11T13:49:52.333Z,8.10
2019-04-11T13:52:43.011Z,8.00
2019-04-11T13:55:17.944Z,7.40
2019-04-11T13:58:05.724Z,8.60
2019-04-11T14:00:49.293Z,8.10
2019-04-11T14:03:31.852Z,8.90
2019-04-11T14:06:04.322Z,9.60
2019-04-11T14:08:56.633Z,9.50
2019-04-11T14:11:24.821Z,9.60
2019-04-11T14:13:54.356Z,10.10
2019-04-11T14:16:22.742Z,10.80
2019-04-11T14:19:11.684Z,10.30
2019-04-11T14:21:39.159Z,10.20
2019-04-11T14:24:25.141Z,8.90
2019-04-11T14:26:54.699Z,10.40
2019-04-11T14:29:46.178Z,10.90
2019-04-11T14:32:24.653Z,9.80
2019-04-11T14:35:11.015Z,10.50
2019-04-11T14:37:45.897Z,10.00
2019-04-11T14:40:34.765Z,11.10
2019-04-11T14:43:38.100Z,10.60
2019-04-11T14:46:26.020Z,11.20
2019-04-11T14:49:14.343Z,11.40
2019-04-11T14:51:58.158Z,11.70
2019-04-11T14:54:28.645Z,10.30
2019-04-11T14:57:04.283Z,10.90
2019-04-11T14:59:37.270Z,11.20
2019-04-11T15:02:23.665Z,11.70
2019-04-11T15:05:06.021Z,11.70
2019-04-11T15:07:34.794Z,11.90
2019-04-11T15:10:37.487Z,12.60
2019-04-11T15:13:06.486Z,13.20
2019-04-11T15:15:54.058Z,13.60
2019-04-11T15:18:26.572Z,13.20
2019-04-11T15:21:24.529Z,14.10
2019-04-11T15:23:53.332Z,14.20
2019-04-11T15:26:49.841Z,14.20
2019-04-11T15:29:25.404Z,14.50
2019-04-11T15:32:13.126Z,13.80
2019-04-11T15:34:43.601Z,14.60
2019-04-11T15:37:33.992Z,14.40
2019-04-11T15:40:07.036Z,14.30
2019-04-11T15:42:54.437Z,15.00
2019-04-11T15:45:41.861Z,13.90
2019-04-11T15:48:28.334Z,14.00
2019-04-11T15:51:16.138Z,14.00
2019-04-11T15:54:13.374Z,13.70
2019-04-11T15:57:12.316Z,14.30
2019-04-11T15:59:57.514Z,15.00
2019-04-11T16:03:03.459Z,14.80
2019-04-11T16:06:03.304Z,15.50
2019-04-11T16:08:51.000Z,16.40
2019-04-11T16:11:41.076Z,16.40
2019-04-11T16:14:20.187Z,17.20
2019-04-11T16:17:06.608Z,17.70
2019-04-11T16:19:57.017Z,17.50
2019-04-11T16:23:02.809Z,17.80
2019-04-11T16:25:30.634Z,18.80
2019-04-11T16:28:16.748Z,19.10
2019-04-11T16:30:51.611Z,19.60
2019-04-11T16:33:26.585Z,20.60
2019-04-11T16:36:14.037Z,20.50
2019-04-11T16:39:01.996Z,20.30
2019-04-11T16:41:47.917Z,20.30
2019-04-11T16:44:24.872Z,21.00
2019-04-11T16:47:25.661Z,21.10
2019-04-11T16:49:57.006Z,20.80
2019-04-11T16:52:25.405Z,20.00
2019-04-11T16:54:53.192Z,20.80
2019-04-11T16:57:21.018Z,21.50
2019-04-11T16:59:49.799Z,20.90
2019-04-11T17:02:18.169Z,21.60
2019-04-11T17:04:45.934Z,21.40
2019-04-11T17:07:31.930Z,21.60
2019-04-11T17:10:00.629Z,21.90
2019-04-11T17:12:28.487Z,22.20
2019-04-11T17:14:56.307Z,22.50
2019-04-11T17:17:26.288Z,22.90
2019-04-11T17:19:53.932Z,22.90
2019-04-11T17:22:21.674Z,24.20
2019-04-11T17:24:49.521Z,24.80
2019-04-11T17:27:17.465Z,24.80
2019-04-11T17:29:47.671Z,24.60
2019-04-11T17:32:17.509Z,24.80
2019-04-11T17:34:45.349Z,25.20
2019-04-11T17:37:13.282Z,25.20
2019-04-11T17:39:41.094Z,25.60
2019-04-11T17:42:10.795Z,25.60
2019-04-11T17:44:38.897Z,26.10
2019-04-11T17:47:06.791Z,26.20
2019-04-11T17:49:34.611Z,26.20
2019-04-11T17:52:04.833Z,26.80
2019-04-11T17:54:32.702Z,27.10
2019-04-11T17:57:00.559Z,27.40
2019-04-11T17:59:29.122Z,27.50
2019-04-11T18:02:12.139Z,27.80
2019-04-11T18:04:44.022Z,27.60
2019-04-11T18:07:09.766Z,27.70
2019-04-11T18:09:37.556Z,27.60
2019-04-11T18:12:05.371Z,27.50
2019-04-11T18:14:33.211Z,27.50
2019-04-11T18:17:03.877Z,27.50
2019-04-11T18:19:30.709Z,27.40
2019-04-11T18:22:07.459Z,27.80
2019-04-11T18:24:28.228Z,28.10
2019-04-11T18:26:56.190Z,28.10
2019-04-11T18:29:23.992Z,28.60
2019-04-11T18:31:51.752Z,28.60
2019-04-11T18:34:19.610Z,28.80
2019-04-11T18:36:47.385Z,28.90
2019-04-11T18:39:16.490Z,29.00
2019-04-11T18:41:49.505Z,29.30
2019-04-11T18:44:18.204Z,29.70
2019-04-11T18:46:47.193Z,29.70
2019-04-11T18:49:15.045Z,30.00
2019-04-11T18:51:42.901Z,30.00
2019-04-11T18:54:10.827Z,30.10
2019-04-11T18:56:38.667Z,30.60
2019-04-11T18:59:10.439Z,30.90
2019-04-11T19:01:40.019Z,31.10
2019-04-11T19:04:11.733Z,31.10
2019-04-11T19:06:37.573Z,31.10
2019-04-11T19:09:13.809Z,31.00
2019-04-11T19:11:39.724Z,31.10
2019-04-11T19:14:07.499Z,31.30
2019-04-11T19:16:35.317Z,31.00
2019-04-11T19:19:03.188Z,31.00
2019-04-11T19:21:31.047Z,31.40
2019-04-11T19:23:58.819Z,31.70
2019-04-11T19:26:26.704Z,31.50
2019-04-11T19:28:55.242Z,32.00
2019-04-11T19:31:30.611Z,32.10
2019-04-11T19:33:58.410Z,31.90
2019-04-11T19:36:26.279Z,32.10
2019-04-11T19:38:54.109Z,32.30
2019-04-11T19:41:21.870Z,32.30
2019-04-11T19:43:49.920Z,32.40
2019-04-11T19:46:20.487Z,32.70
2019-04-11T19:48:48.154Z,33.40
2019-04-11T19:51:15.939Z,33.30
2019-04-11T19:53:43.802Z,33.20
2019-04-11T19:56:23.745Z,33.40
2019-04-11T19:58:51.579Z,33.30
2019-04-11T20:01:25.393Z,33.40
2019-04-11T20:03:53.985Z,33.60
2019-04-11T20:06:22.468Z,34.10
2019-04-11T20:08:50.275Z,33.60
2019-04-11T20:11:30.005Z,33.90
2019-04-11T20:14:02.018Z,34.80
2019-04-11T20:16:28.650Z,34.30
2019-04-11T20:18:58.606Z,34.30
2019-04-11T20:21:38.984Z,34.80
2019-04-11T20:24:07.441Z,35.60
2019-04-11T20:26:37.027Z,35.50
2019-04-11T20:29:05.205Z,35.00
2019-04-11T20:31:33.530Z,34.80
2019-04-11T20:34:06.766Z,35.40
2019-04-11T20:36:33.791Z,35.40
2019-04-11T20:39:02.627Z,37.10
2019-04-11T20:41:31.033Z,36.80
2019-04-11T20:43:59.305Z,36.50
2019-04-11T20:46:29.118Z,37.10
2019-04-11T20:48:57.488Z,37.20
2019-04-11T20:51:25.734Z,37.20
2019-04-11T20:53:54.502Z,38.60
2019-04-11T20:56:24.369Z,37.80
2019-04-11T20:59:12.059Z,37.90
2019-04-11T21:01:40.431Z,38.90
2019-04-11T21:04:08.598Z,39.00
2019-04-11T21:06:37.346Z,38.50
2019-04-11T21:09:09.934Z,38.70
2019-04-11T21:11:38.338Z,39.10
2019-04-11T21:14:06.559Z,39.70
2019-04-11T21:16:34.878Z,40.10
2019-04-11T21:19:03.529Z,40.10
2019-04-11T21:21:31.634Z,40.50
2019-04-11T21:24:00.550Z,39.20
2019-04-11T21:26:29.526Z,40.20
2019-04-11T21:29:00.947Z,39.70
2019-04-11T21:31:31.230Z,39.90
2019-04-11T21:33:59.122Z,40.00
2019-04-11T21:36:31.474Z,40.30
2019-04-11T21:38:57.519Z,39.90
2019-04-11T21:41:25.352Z,39.90
2019-04-11T21:43:53.103Z,40.80
2019-04-11T21:46:22.059Z,40.40
2019-04-11T21:48:49.848Z,40.20
2019-04-11T21:51:17.688Z,41.00
2019-04-11T21:53:45.552Z,40.60
2019-04-11T21:56:13.366Z,42.30
2019-04-11T21:58:42.059Z,41.90
2019-04-11T22:01:13.596Z,40.90
2019-04-11T22:03:41.524Z,40.10
2019-04-11T22:06:09.408Z,40.80
2019-04-11T22:08:37.216Z,41.30
2019-04-11T22:11:04.988Z,41.20
2019-04-11T22:13:32.833Z,41.80
2019-04-11T22:16:00.665Z,42.30
2019-04-11T22:18:28.462Z,43.10
2019-04-11T22:20:56.555Z,44.20
2019-04-11T22:23:24.357Z,43.60
2019-04-11T22:25:52.175Z,44.70
2019-04-11T22:28:24.063Z,44.70
2019-04-11T22:30:50.021Z,44.70
2019-04-11T22:33:46.405Z,44.60
2019-04-11T22:36:14.177Z,44.30
2019-04-11T22:38:42.040Z,44.70
2019-04-11T22:41:10.054Z,44.50
2019-04-11T22:43:38.665Z,44.50
2019-04-11T22:46:08.034Z,44.50
2019-04-11T22:48:36.853Z,45.10
2019-04-11T22:51:11.432Z,44.50
2019-04-11T22:53:40.790Z,44.50
2019-04-11T22:56:11.679Z,44.70
2019-04-11T22:58:39.315Z,43.70
2019-04-11T23:01:07.116Z,43.80
2019-04-11T23:03:41.918Z,44.40
2019-04-11T23:06:09.667Z,44.40
2019-04-11T23:08:37.434Z,44.80
2019-04-11T23:11:07.153Z,44.40
2019-04-11T23:13:34.998Z,44.70
2019-04-11T23:16:02.792Z,46.40
2019-04-11T23:18:30.545Z,45.10
2019-04-11T23:20:58.523Z,46.00
2019-04-11T23:23:26.281Z,45.40
2019-04-11T23:25:54.093Z,45.10
2019-04-11T23:28:21.860Z,45.00
2019-04-11T23:30:50.560Z,45.50
2019-04-11T23:33:18.916Z,45.20
2019-04-11T23:35:48.856Z,46.50
2019-04-11T23:38:17.868Z,46.50
2019-04-11T23:40:45.801Z,45.40
2019-04-11T23:43:15.320Z,45.70
2019-04-11T23:45:43.142Z,45.90
2019-04-11T23:48:10.907Z,45.30
2019-04-11T23:50:38.687Z,46.20
2019-04-11T23:53:06.438Z,46.60
2019-04-11T23:55:34.218Z,46.50
2019-04-11T23:58:02.334Z,46.50
